sensor_id;sensor_type;location;lat;lon;timestamp;temperature;humidity
18741;DHT22;9499;52.472;13.448;2023-06-22T00:01:12;23.70;99.90
18741;DHT22;9499;52.472;13.448;2023-06-22T00:03:39;23.60;1.00
18741;DHT22;9499;52.472;13.448;2023-06-22T00:06:05;23.40;1.00
18741;DHT22;9499;52.472;13.448;2023-06-22T00:08:32;23.30;99.90
18741;DHT22;9499;52.472;13.448;2023-06-22T00:10:58;23.30;1.00
18741;DHT22;9499;52.472;13.448;2023-06-22T00:13:26;23.20;1.00
18741;DHT22;9499;52.472;13.448;2023-06-22T00:15:53;23.10;99.90
18741;DHT22;9499;52.472;13.448;2023-06-22T00:18:19;23.10;99.90
18741;DHT22;9499;52.472;13.448;2023-06-22T00:20:46;23.10;1.00
18741;DHT22;9499;52.472;13.448;2023-06-22T00:23:12;23.00;1.00
18741;DHT22;9499;52.472;13.448;2023-06-22T00:25:42;23.00;1.00
18741;DHT22;9499;52.472;13.448;2023-06-22T00:28:09;22.90;1.00
18741;DHT22;9499;52.472;13.448;2023-06-22T00:30:37;22.90;1.00
18741;DHT22;9499;52.472;13.448;2023-06-22T00:33:03;22.90;1.00
18741;DHT22;9499;52.472;13.448;2023-06-22T00:35:32;23.00;99.90
18741;DHT22;9499;52.472;13.448;2023-06-22T00:38:00;23.00;99.90
18741;DHT22;9499;52.472;13.448;2023-06-22T00:40:29;23.00;99.90
18741;DHT22;9499;52.472;13.448;2023-06-22T00:42:56;23.00;99.90
18741;DHT22;9499;52.472;13.448;2023-06-22T00:45:23;23.00;99.90
18741;DHT22;9499;52.472;13.448;2023-06-22T00:47:52;23.00;99.90
18741;DHT22;9499;52.472;13.448;2023-06-22T00:50:20;22.90;99.90
18741;DHT22;9499;52.472;13.448;2023-06-22T00:52:49;22.90;99.90
18741;DHT22;9499;52.472;13.448;2023-06-22T00:55:18;22.90;99.90
18741;DHT22;9499;52.472;13.448;2023-06-22T00:57:45;22.90;1.00
18741;DHT22;9499;52.472;13.448;2023-06-22T01:00:12;22.80;1.00
18741;DHT22;9499;52.472;13.448;2023-06-22T01:02:44;22.80;99.90
18741;DHT22;9499;52.472;13.448;2023-06-22T01:05:13;22.70;99.90
18741;DHT22;9499;52.472;13.448;2023-06-22T01:07:44;22.70;99.90
18741;DHT22;9499;52.472;13.448;2023-06-22T01:10:21;22.60;1.00
18741;DHT22;9499;52.472;13.448;2023-06-22T01:12:53;22.60;99.90
18741;DHT22;9499;52.472;13.448;2023-06-22T01:15:23;22.70;99.90
18741;DHT22;9499;52.472;13.448;2023-06-22T01:17:52;22.70;99.90
18741;DHT22;9499;52.472;13.448;2023-06-22T01:20:20;22.60;1.00
18741;DHT22;9499;52.472;13.448;2023-06-22T01:22:58;22.60;1.00
18741;DHT22;9499;52.472;13.448;2023-06-22T01:25:33;22.60;1.00
18741;DHT22;9499;52.472;13.448;2023-06-22T01:28:09;22.60;1.00
18741;DHT22;9499;52.472;13.448;2023-06-22T01:30:41;22.70;1.00
18741;DHT22;9499;52.472;13.448;2023-06-22T01:33:09;22.70;1.00
18741;DHT22;9499;52.472;13.448;2023-06-22T01:35:37;22.60;1.00
18741;DHT22;9499;52.472;13.448;2023-06-22T01:38:04;22.50;43.60
18741;DHT22;9499;52.472;13.448;2023-06-22T01:40:32;22.50;29.80
18741;DHT22;9499;52.472;13.448;2023-06-22T01:43:00;22.50;91.40
18741;DHT22;9499;52.472;13.448;2023-06-22T01:45:27;22.40;99.90
18741;DHT22;9499;52.472;13.448;2023-06-22T01:47:56;22.30;1.00
18741;DHT22;9499;52.472;13.448;2023-06-22T01:50:24;22.30;1.00
18741;DHT22;9499;52.472;13.448;2023-06-22T01:52:52;22.30;1.00
18741;DHT22;9499;52.472;13.448;2023-06-22T01:55:19;22.20;1.00
18741;DHT22;9499;52.472;13.448;2023-06-22T01:57:46;22.20;1.00
18741;DHT22;9499;52.472;13.448;2023-06-22T02:00:18;22.20;1.00
18741;DHT22;9499;52.472;13.448;2023-06-22T02:02:53;22.30;1.00
18741;DHT22;9499;52.472;13.448;2023-06-22T02:05:23;22.30;1.00
18741;DHT22;9499;52.472;13.448;2023-06-22T02:07:56;22.30;1.00
18741;DHT22;9499;52.472;13.448;2023-06-22T02:10:26;22.30;1.00
18741;DHT22;9499;52.472;13.448;2023-06-22T02:12:53;22.30;1.00
18741;DHT22;9499;52.472;13.448;2023-06-22T02:15:21;22.30;1.00
18741;DHT22;9499;52.472;13.448;2023-06-22T02:17:48;22.20;85.50
18741;DHT22;9499;52.472;13.448;2023-06-22T02:20:15;22.30;1.00
18741;DHT22;9499;52.472;13.448;2023-06-22T02:22:42;22.20;28.40
18741;DHT22;9499;52.472;13.448;2023-06-22T02:25:09;22.10;99.90
18741;DHT22;9499;52.472;13.448;2023-06-22T02:27:36;22.00;99.90
18741;DHT22;9499;52.472;13.448;2023-06-22T02:30:06;22.00;1.00
18741;DHT22;9499;52.472;13.448;2023-06-22T02:32:33;21.90;1.00
18741;DHT22;9499;52.472;13.448;2023-06-22T02:35:00;21.90;1.00
18741;DHT22;9499;52.472;13.448;2023-06-22T02:37:29;21.90;1.00
18741;DHT22;9499;52.472;13.448;2023-06-22T02:39:57;21.90;1.00
18741;DHT22;9499;52.472;13.448;2023-06-22T02:42:23;21.80;1.00
18741;DHT22;9499;52.472;13.448;2023-06-22T02:44:50;21.80;1.00
18741;DHT22;9499;52.472;13.448;2023-06-22T02:47:17;21.80;50.00
18741;DHT22;9499;52.472;13.448;2023-06-22T02:49:44;21.80;49.50
18741;DHT22;9499;52.472;13.448;2023-06-22T02:52:12;21.80;99.90
18741;DHT22;9499;52.472;13.448;2023-06-22T02:54:38;21.80;99.90
18741;DHT22;9499;52.472;13.448;2023-06-22T02:57:06;21.80;99.90
18741;DHT22;9499;52.472;13.448;2023-06-22T02:59:39;21.80;99.90
18741;DHT22;9499;52.472;13.448;2023-06-22T03:02:06;21.90;99.90
18741;DHT22;9499;52.472;13.448;2023-06-22T03:04:32;21.90;87.10
18741;DHT22;9499;52.472;13.448;2023-06-22T03:06:59;22.00;6.70
18741;DHT22;9499;52.472;13.448;2023-06-22T03:09:26;21.90;99.90
18741;DHT22;9499;52.472;13.448;2023-06-22T03:11:53;21.90;90.20
18741;DHT22;9499;52.472;13.448;2023-06-22T03:14:21;21.80;99.90
18741;DHT22;9499;52.472;13.448;2023-06-22T03:16:48;21.70;99.90
18741;DHT22;9499;52.472;13.448;2023-06-22T03:19:15;21.80;99.90
18741;DHT22;9499;52.472;13.448;2023-06-22T03:21:42;21.80;99.90
18741;DHT22;9499;52.472;13.448;2023-06-22T03:24:08;21.80;99.90
18741;DHT22;9499;52.472;13.448;2023-06-22T03:26:35;21.80;99.90
18741;DHT22;9499;52.472;13.448;2023-06-22T03:29:01;21.80;99.90
18741;DHT22;9499;52.472;13.448;2023-06-22T03:31:29;21.80;99.90
18741;DHT22;9499;52.472;13.448;2023-06-22T03:33:56;21.70;99.90
18741;DHT22;9499;52.472;13.448;2023-06-22T03:36:22;21.60;99.90
18741;DHT22;9499;52.472;13.448;2023-06-22T03:38:50;21.60;99.90
18741;DHT22;9499;52.472;13.448;2023-06-22T03:41:16;21.60;99.90
18741;DHT22;9499;52.472;13.448;2023-06-22T03:43:43;21.60;99.90
18741;DHT22;9499;52.472;13.448;2023-06-22T03:46:09;21.60;99.90
18741;DHT22;9499;52.472;13.448;2023-06-22T03:48:37;21.60;99.90
18741;DHT22;9499;52.472;13.448;2023-06-22T03:51:04;21.60;99.90
18741;DHT22;9499;52.472;13.448;2023-06-22T03:53:31;21.60;1.00
18741;DHT22;9499;52.472;13.448;2023-06-22T03:55:58;21.60;1.00
18741;DHT22;9499;52.472;13.448;2023-06-22T03:58:24;21.60;7.50
18741;DHT22;9499;52.472;13.448;2023-06-22T04:00:52;21.60;1.00
18741;DHT22;9499;52.472;13.448;2023-06-22T04:03:19;21.50;1.00
18741;DHT22;9499;52.472;13.448;2023-06-22T04:05:47;21.50;1.00
18741;DHT22;9499;52.472;13.448;2023-06-22T04:08:15;21.50;1.00
18741;DHT22;9499;52.472;13.448;2023-06-22T04:10:42;21.50;1.00
18741;DHT22;9499;52.472;13.448;2023-06-22T04:13:09;21.50;1.00
18741;DHT22;9499;52.472;13.448;2023-06-22T04:15:35;21.60;1.00
18741;DHT22;9499;52.472;13.448;2023-06-22T04:18:02;21.60;1.00
18741;DHT22;9499;52.472;13.448;2023-06-22T04:20:29;21.60;1.00
18741;DHT22;9499;52.472;13.448;2023-06-22T04:22:58;21.60;1.00
18741;DHT22;9499;52.472;13.448;2023-06-22T04:25:24;21.60;1.00
18741;DHT22;9499;52.472;13.448;2023-06-22T04:27:51;21.60;1.00
18741;DHT22;9499;52.472;13.448;2023-06-22T04:30:17;21.50;1.00
18741;DHT22;9499;52.472;13.448;2023-06-22T04:32:44;21.50;1.00
18741;DHT22;9499;52.472;13.448;2023-06-22T04:35:23;21.50;1.00
18741;DHT22;9499;52.472;13.448;2023-06-22T04:37:49;21.40;21.40
18741;DHT22;9499;52.472;13.448;2023-06-22T04:40:21;21.50;1.00
18741;DHT22;9499;52.472;13.448;2023-06-22T04:42:48;21.60;1.00
18741;DHT22;9499;52.472;13.448;2023-06-22T04:45:18;21.60;1.00
18741;DHT22;9499;52.472;13.448;2023-06-22T04:47:44;21.60;1.00
18741;DHT22;9499;52.472;13.448;2023-06-22T04:50:11;21.60;1.00
18741;DHT22;9499;52.472;13.448;2023-06-22T04:52:38;21.60;1.00
18741;DHT22;9499;52.472;13.448;2023-06-22T04:55:06;21.70;1.00
18741;DHT22;9499;52.472;13.448;2023-06-22T04:57:34;21.70;1.00
18741;DHT22;9499;52.472;13.448;2023-06-22T05:00:05;21.90;99.90
18741;DHT22;9499;52.472;13.448;2023-06-22T05:02:37;21.90;99.90
18741;DHT22;9499;52.472;13.448;2023-06-22T05:05:05;21.90;1.00
18741;DHT22;9499;52.472;13.448;2023-06-22T05:07:32;21.90;1.00
18741;DHT22;9499;52.472;13.448;2023-06-22T05:09:59;21.90;1.00
18741;DHT22;9499;52.472;13.448;2023-06-22T05:12:27;21.80;1.00
18741;DHT22;9499;52.472;13.448;2023-06-22T05:14:55;22.00;1.00
18741;DHT22;9499;52.472;13.448;2023-06-22T05:17:21;22.00;1.00
18741;DHT22;9499;52.472;13.448;2023-06-22T05:19:48;22.00;99.90
18741;DHT22;9499;52.472;13.448;2023-06-22T05:22:15;21.90;1.00
18741;DHT22;9499;52.472;13.448;2023-06-22T05:24:41;22.00;1.00
18741;DHT22;9499;52.472;13.448;2023-06-22T05:27:08;22.10;1.00
18741;DHT22;9499;52.472;13.448;2023-06-22T05:29:34;22.20;1.00
18741;DHT22;9499;52.472;13.448;2023-06-22T05:32:02;22.20;99.90
18741;DHT22;9499;52.472;13.448;2023-06-22T05:34:29;22.20;99.90
18741;DHT22;9499;52.472;13.448;2023-06-22T05:36:56;22.30;1.00
18741;DHT22;9499;52.472;13.448;2023-06-22T05:39:24;22.30;99.90
18741;DHT22;9499;52.472;13.448;2023-06-22T05:41:50;22.40;99.90
18741;DHT22;9499;52.472;13.448;2023-06-22T05:44:17;22.50;1.00
18741;DHT22;9499;52.472;13.448;2023-06-22T05:46:44;22.50;1.00
18741;DHT22;9499;52.472;13.448;2023-06-22T05:49:13;22.40;1.00
18741;DHT22;9499;52.472;13.448;2023-06-22T05:51:40;22.40;1.00
18741;DHT22;9499;52.472;13.448;2023-06-22T05:54:07;22.50;1.00
18741;DHT22;9499;52.472;13.448;2023-06-22T05:56:34;22.60;1.00
18741;DHT22;9499;52.472;13.448;2023-06-22T05:59:00;22.60;1.00
18741;DHT22;9499;52.472;13.448;2023-06-22T06:01:27;22.60;1.00
18741;DHT22;9499;52.472;13.448;2023-06-22T06:03:53;22.70;1.00
18741;DHT22;9499;52.472;13.448;2023-06-22T06:06:21;22.80;1.00
18741;DHT22;9499;52.472;13.448;2023-06-22T06:08:53;22.90;1.00
18741;DHT22;9499;52.472;13.448;2023-06-22T06:11:21;22.90;1.00
18741;DHT22;9499;52.472;13.448;2023-06-22T06:13:47;23.00;1.00
18741;DHT22;9499;52.472;13.448;2023-06-22T06:16:14;23.00;1.00
18741;DHT22;9499;52.472;13.448;2023-06-22T06:18:40;23.00;1.00
18741;DHT22;9499;52.472;13.448;2023-06-22T06:21:07;23.00;1.00
18741;DHT22;9499;52.472;13.448;2023-06-22T06:23:35;23.10;84.90
18741;DHT22;9499;52.472;13.448;2023-06-22T06:26:01;23.10;1.00
18741;DHT22;9499;52.472;13.448;2023-06-22T06:28:32;23.20;99.90
18741;DHT22;9499;52.472;13.448;2023-06-22T06:30:58;23.20;1.00
18741;DHT22;9499;52.472;13.448;2023-06-22T06:33:25;23.10;1.00
18741;DHT22;9499;52.472;13.448;2023-06-22T06:35:51;23.20;1.00
18741;DHT22;9499;52.472;13.448;2023-06-22T06:38:18;23.30;99.90
18741;DHT22;9499;52.472;13.448;2023-06-22T06:40:46;23.20;99.90
18741;DHT22;9499;52.472;13.448;2023-06-22T06:43:14;23.20;99.90
18741;DHT22;9499;52.472;13.448;2023-06-22T06:45:40;23.20;55.90
18741;DHT22;9499;52.472;13.448;2023-06-22T06:48:07;23.20;1.00
18741;DHT22;9499;52.472;13.448;2023-06-22T06:50:34;23.30;1.00
18741;DHT22;9499;52.472;13.448;2023-06-22T06:53:01;23.30;99.90
18741;DHT22;9499;52.472;13.448;2023-06-22T06:55:27;23.40;1.00
18741;DHT22;9499;52.472;13.448;2023-06-22T06:57:59;23.50;1.00
18741;DHT22;9499;52.472;13.448;2023-06-22T07:00:26;23.60;99.90
18741;DHT22;9499;52.472;13.448;2023-06-22T07:02:53;23.70;99.90
18741;DHT22;9499;52.472;13.448;2023-06-22T07:05:19;23.80;99.90
18741;DHT22;9499;52.472;13.448;2023-06-22T07:07:46;23.90;1.00
18741;DHT22;9499;52.472;13.448;2023-06-22T07:10:12;23.90;99.90
18741;DHT22;9499;52.472;13.448;2023-06-22T07:12:40;24.00;99.90
18741;DHT22;9499;52.472;13.448;2023-06-22T07:15:09;24.10;85.30
18741;DHT22;9499;52.472;13.448;2023-06-22T07:17:38;24.10;99.90
18741;DHT22;9499;52.472;13.448;2023-06-22T07:20:07;24.20;99.90
18741;DHT22;9499;52.472;13.448;2023-06-22T07:22:36;24.30;99.90
18741;DHT22;9499;52.472;13.448;2023-06-22T07:25:02;24.40;99.90
18741;DHT22;9499;52.472;13.448;2023-06-22T07:27:34;24.40;1.00
18741;DHT22;9499;52.472;13.448;2023-06-22T07:30:03;24.50;1.00
18741;DHT22;9499;52.472;13.448;2023-06-22T07:32:31;24.60;1.00
18741;DHT22;9499;52.472;13.448;2023-06-22T07:34:58;24.60;1.00
18741;DHT22;9499;52.472;13.448;2023-06-22T07:37:24;24.70;99.90
18741;DHT22;9499;52.472;13.448;2023-06-22T07:39:52;24.70;99.90
18741;DHT22;9499;52.472;13.448;2023-06-22T07:42:23;24.80;1.00
18741;DHT22;9499;52.472;13.448;2023-06-22T07:44:50;24.90;99.90
18741;DHT22;9499;52.472;13.448;2023-06-22T07:47:16;25.00;99.90
18741;DHT22;9499;52.472;13.448;2023-06-22T07:49:46;25.10;99.90
18741;DHT22;9499;52.472;13.448;2023-06-22T07:52:12;25.00;99.90
18741;DHT22;9499;52.472;13.448;2023-06-22T07:54:39;25.10;99.90
18741;DHT22;9499;52.472;13.448;2023-06-22T07:57:06;25.10;43.90
18741;DHT22;9499;52.472;13.448;2023-06-22T07:59:32;25.20;1.00
18741;DHT22;9499;52.472;13.448;2023-06-22T08:01:59;25.30;1.00
18741;DHT22;9499;52.472;13.448;2023-06-22T08:04:25;25.30;1.00
18741;DHT22;9499;52.472;13.448;2023-06-22T08:06:54;25.40;1.00
18741;DHT22;9499;52.472;13.448;2023-06-22T08:09:20;25.40;1.00
18741;DHT22;9499;52.472;13.448;2023-06-22T08:11:47;25.40;1.00
18741;DHT22;9499;52.472;13.448;2023-06-22T08:14:14;25.50;1.00
18741;DHT22;9499;52.472;13.448;2023-06-22T08:16:41;25.60;1.00
18741;DHT22;9499;52.472;13.448;2023-06-22T08:19:07;25.60;1.00
18741;DHT22;9499;52.472;13.448;2023-06-22T08:21:34;25.60;1.00
18741;DHT22;9499;52.472;13.448;2023-06-22T08:24:02;25.60;1.00
18741;DHT22;9499;52.472;13.448;2023-06-22T08:26:29;25.70;1.00
18741;DHT22;9499;52.472;13.448;2023-06-22T08:28:55;25.80;1.00
18741;DHT22;9499;52.472;13.448;2023-06-22T08:31:22;25.90;1.00
18741;DHT22;9499;52.472;13.448;2023-06-22T08:33:48;25.90;1.00
18741;DHT22;9499;52.472;13.448;2023-06-22T08:36:15;26.10;1.00
18741;DHT22;9499;52.472;13.448;2023-06-22T08:38:41;26.10;1.00
18741;DHT22;9499;52.472;13.448;2023-06-22T08:41:09;26.10;1.00
18741;DHT22;9499;52.472;13.448;2023-06-22T08:43:36;26.00;1.00
18741;DHT22;9499;52.472;13.448;2023-06-22T08:46:02;26.00;1.00
18741;DHT22;9499;52.472;13.448;2023-06-22T08:48:29;26.00;1.00
18741;DHT22;9499;52.472;13.448;2023-06-22T08:50:56;26.00;99.90
18741;DHT22;9499;52.472;13.448;2023-06-22T08:53:23;26.10;1.00
18741;DHT22;9499;52.472;13.448;2023-06-22T08:55:49;26.20;99.90
18741;DHT22;9499;52.472;13.448;2023-06-22T08:58:18;26.20;99.90
18741;DHT22;9499;52.472;13.448;2023-06-22T09:00:45;26.20;99.90
18741;DHT22;9499;52.472;13.448;2023-06-22T09:03:12;26.30;99.90
18741;DHT22;9499;52.472;13.448;2023-06-22T09:05:38;26.40;99.90
18741;DHT22;9499;52.472;13.448;2023-06-22T09:08:05;26.60;99.90
18741;DHT22;9499;52.472;13.448;2023-06-22T09:10:31;26.70;99.90
18741;DHT22;9499;52.472;13.448;2023-06-22T09:12:58;26.70;99.90
18741;DHT22;9499;52.472;13.448;2023-06-22T09:15:26;26.70;99.90
18741;DHT22;9499;52.472;13.448;2023-06-22T09:17:52;26.80;99.90
18741;DHT22;9499;52.472;13.448;2023-06-22T09:20:19;27.00;99.90
18741;DHT22;9499;52.472;13.448;2023-06-22T09:22:46;27.00;99.90
18741;DHT22;9499;52.472;13.448;2023-06-22T09:25:13;27.00;99.90
18741;DHT22;9499;52.472;13.448;2023-06-22T09:27:39;27.00;99.30
18741;DHT22;9499;52.472;13.448;2023-06-22T09:30:07;27.00;81.20
18741;DHT22;9499;52.472;13.448;2023-06-22T09:32:35;27.00;37.00
18741;DHT22;9499;52.472;13.448;2023-06-22T09:35:04;26.90;1.00
18741;DHT22;9499;52.472;13.448;2023-06-22T09:37:32;26.80;7.50
18741;DHT22;9499;52.472;13.448;2023-06-22T09:39:58;26.90;1.00
18741;DHT22;9499;52.472;13.448;2023-06-22T09:42:25;27.00;1.00
18741;DHT22;9499;52.472;13.448;2023-06-22T09:44:51;27.00;1.00
18741;DHT22;9499;52.472;13.448;2023-06-22T09:47:18;27.00;18.50
18741;DHT22;9499;52.472;13.448;2023-06-22T09:49:46;27.10;44.90
18741;DHT22;9499;52.472;13.448;2023-06-22T09:52:13;27.00;1.00
18741;DHT22;9499;52.472;13.448;2023-06-22T09:54:39;26.90;1.00
18741;DHT22;9499;52.472;13.448;2023-06-22T09:57:06;27.00;1.00
18741;DHT22;9499;52.472;13.448;2023-06-22T09:59:33;27.00;1.00
18741;DHT22;9499;52.472;13.448;2023-06-22T10:01:59;27.10;1.00
18741;DHT22;9499;52.472;13.448;2023-06-22T10:04:26;27.30;1.00
18741;DHT22;9499;52.472;13.448;2023-06-22T10:06:54;27.40;1.00
18741;DHT22;9499;52.472;13.448;2023-06-22T10:09:20;27.50;33.30
18741;DHT22;9499;52.472;13.448;2023-06-22T10:11:47;27.40;42.80
18741;DHT22;9499;52.472;13.448;2023-06-22T10:14:14;27.50;98.80
18741;DHT22;9499;52.472;13.448;2023-06-22T10:16:40;27.50;1.00
18741;DHT22;9499;52.472;13.448;2023-06-22T10:19:07;27.60;1.00
18741;DHT22;9499;52.472;13.448;2023-06-22T10:21:34;27.90;1.00
18741;DHT22;9499;52.472;13.448;2023-06-22T10:24:02;27.90;1.00
18741;DHT22;9499;52.472;13.448;2023-06-22T10:26:31;28.20;1.00
18741;DHT22;9499;52.472;13.448;2023-06-22T10:28:58;28.40;1.00
18741;DHT22;9499;52.472;13.448;2023-06-22T10:31:24;28.60;1.00
18741;DHT22;9499;52.472;13.448;2023-06-22T10:33:51;28.90;1.00
18741;DHT22;9499;52.472;13.448;2023-06-22T10:36:18;28.90;1.00
18741;DHT22;9499;52.472;13.448;2023-06-22T10:38:45;29.10;1.00
18741;DHT22;9499;52.472;13.448;2023-06-22T10:41:13;29.30;1.00
18741;DHT22;9499;52.472;13.448;2023-06-22T10:43:40;29.40;1.00
18741;DHT22;9499;52.472;13.448;2023-06-22T10:46:07;29.30;1.00
18741;DHT22;9499;52.472;13.448;2023-06-22T10:48:33;29.30;1.00
18741;DHT22;9499;52.472;13.448;2023-06-22T10:51:00;29.40;1.00
18741;DHT22;9499;52.472;13.448;2023-06-22T10:53:26;29.60;1.00
18741;DHT22;9499;52.472;13.448;2023-06-22T10:55:53;29.60;1.00
18741;DHT22;9499;52.472;13.448;2023-06-22T10:58:21;29.50;1.00
18741;DHT22;9499;52.472;13.448;2023-06-22T11:00:47;29.50;1.00
18741;DHT22;9499;52.472;13.448;2023-06-22T11:03:14;29.80;1.00
18741;DHT22;9499;52.472;13.448;2023-06-22T11:05:40;30.10;1.00
18741;DHT22;9499;52.472;13.448;2023-06-22T11:08:07;30.50;1.00
18741;DHT22;9499;52.472;13.448;2023-06-22T11:10:34;30.60;1.00
18741;DHT22;9499;52.472;13.448;2023-06-22T11:13:00;30.70;1.00
18741;DHT22;9499;52.472;13.448;2023-06-22T11:15:30;30.60;1.00
18741;DHT22;9499;52.472;13.448;2023-06-22T11:17:57;30.50;1.00
18741;DHT22;9499;52.472;13.448;2023-06-22T11:20:23;30.40;1.00
18741;DHT22;9499;52.472;13.448;2023-06-22T11:22:50;30.50;1.00
18741;DHT22;9499;52.472;13.448;2023-06-22T11:25:17;30.60;1.00
18741;DHT22;9499;52.472;13.448;2023-06-22T11:27:43;30.70;1.00
18741;DHT22;9499;52.472;13.448;2023-06-22T11:30:10;30.80;1.00
18741;DHT22;9499;52.472;13.448;2023-06-22T11:32:38;30.50;1.00
18741;DHT22;9499;52.472;13.448;2023-06-22T11:35:05;30.50;1.00
18741;DHT22;9499;52.472;13.448;2023-06-22T11:37:31;30.80;1.00
18741;DHT22;9499;52.472;13.448;2023-06-22T11:39:58;31.10;1.00
18741;DHT22;9499;52.472;13.448;2023-06-22T11:42:24;31.30;1.00
18741;DHT22;9499;52.472;13.448;2023-06-22T11:44:51;31.40;1.00
18741;DHT22;9499;52.472;13.448;2023-06-22T11:47:18;31.30;1.00
18741;DHT22;9499;52.472;13.448;2023-06-22T11:49:46;31.00;1.00
18741;DHT22;9499;52.472;13.448;2023-06-22T11:52:12;31.10;1.00
18741;DHT22;9499;52.472;13.448;2023-06-22T11:54:39;31.30;1.00
18741;DHT22;9499;52.472;13.448;2023-06-22T11:57:05;31.10;1.00
18741;DHT22;9499;52.472;13.448;2023-06-22T11:59:32;31.10;1.00
18741;DHT22;9499;52.472;13.448;2023-06-22T12:01:59;31.10;1.00
18741;DHT22;9499;52.472;13.448;2023-06-22T12:04:25;31.50;1.00
18741;DHT22;9499;52.472;13.448;2023-06-22T12:06:53;31.70;1.00
18741;DHT22;9499;52.472;13.448;2023-06-22T12:09:19;31.70;1.00
18741;DHT22;9499;52.472;13.448;2023-06-22T12:11:46;31.80;1.00
18741;DHT22;9499;52.472;13.448;2023-06-22T12:14:13;31.90;99.90
18741;DHT22;9499;52.472;13.448;2023-06-22T12:16:39;32.10;99.90
18741;DHT22;9499;52.472;13.448;2023-06-22T12:19:06;31.80;99.90
18741;DHT22;9499;52.472;13.448;2023-06-22T12:21:32;31.80;99.90
18741;DHT22;9499;52.472;13.448;2023-06-22T12:24:00;31.90;99.90
18741;DHT22;9499;52.472;13.448;2023-06-22T12:26:26;32.10;99.90
18741;DHT22;9499;52.472;13.448;2023-06-22T12:28:53;32.10;99.90
18741;DHT22;9499;52.472;13.448;2023-06-22T12:31:19;32.40;99.90
18741;DHT22;9499;52.472;13.448;2023-06-22T12:33:46;32.60;99.90
18741;DHT22;9499;52.472;13.448;2023-06-22T12:36:12;32.70;99.90
18741;DHT22;9499;52.472;13.448;2023-06-22T12:38:39;32.80;99.90
18741;DHT22;9499;52.472;13.448;2023-06-22T12:41:07;32.90;99.90
18741;DHT22;9499;52.472;13.448;2023-06-22T12:43:33;32.90;99.90
18741;DHT22;9499;52.472;13.448;2023-06-22T12:46:00;33.00;99.90
18741;DHT22;9499;52.472;13.448;2023-06-22T12:48:27;32.90;99.90
18741;DHT22;9499;52.472;13.448;2023-06-22T12:50:54;33.00;99.90
18741;DHT22;9499;52.472;13.448;2023-06-22T12:53:20;33.00;99.90
18741;DHT22;9499;52.472;13.448;2023-06-22T12:55:48;33.00;99.90
18741;DHT22;9499;52.472;13.448;2023-06-22T12:58:15;32.90;99.90
18741;DHT22;9499;52.472;13.448;2023-06-22T13:00:42;32.70;99.90
18741;DHT22;9499;52.472;13.448;2023-06-22T13:03:08;32.70;99.90
18741;DHT22;9499;52.472;13.448;2023-06-22T13:05:35;32.70;99.90
18741;DHT22;9499;52.472;13.448;2023-06-22T13:08:02;32.70;99.90
18741;DHT22;9499;52.472;13.448;2023-06-22T13:10:28;32.70;99.90
18741;DHT22;9499;52.472;13.448;2023-06-22T13:12:55;32.60;99.90
18741;DHT22;9499;52.472;13.448;2023-06-22T13:15:27;32.70;99.90
18741;DHT22;9499;52.472;13.448;2023-06-22T13:17:53;32.70;99.90
18741;DHT22;9499;52.472;13.448;2023-06-22T13:20:20;32.70;99.90
18741;DHT22;9499;52.472;13.448;2023-06-22T13:22:46;32.80;99.90
18741;DHT22;9499;52.472;13.448;2023-06-22T13:25:13;32.90;99.90
18741;DHT22;9499;52.472;13.448;2023-06-22T13:27:44;32.90;99.90
18741;DHT22;9499;52.472;13.448;2023-06-22T13:30:11;32.90;99.90
18741;DHT22;9499;52.472;13.448;2023-06-22T13:32:39;33.00;99.90
18741;DHT22;9499;52.472;13.448;2023-06-22T13:35:07;33.10;99.90
18741;DHT22;9499;52.472;13.448;2023-06-22T13:37:34;33.20;99.90
18741;DHT22;9499;52.472;13.448;2023-06-22T13:40:01;33.10;99.90
18741;DHT22;9499;52.472;13.448;2023-06-22T13:42:30;33.10;99.90
18741;DHT22;9499;52.472;13.448;2023-06-22T13:44:57;33.10;99.90
18741;DHT22;9499;52.472;13.448;2023-06-22T13:47:23;33.20;99.90
18741;DHT22;9499;52.472;13.448;2023-06-22T13:49:51;33.40;99.90
18741;DHT22;9499;52.472;13.448;2023-06-22T13:52:18;33.40;99.90
18741;DHT22;9499;52.472;13.448;2023-06-22T13:54:44;33.30;99.90
18741;DHT22;9499;52.472;13.448;2023-06-22T13:57:11;33.40;99.90
18741;DHT22;9499;52.472;13.448;2023-06-22T13:59:37;33.40;99.90
18741;DHT22;9499;52.472;13.448;2023-06-22T14:02:04;33.30;99.90
18741;DHT22;9499;52.472;13.448;2023-06-22T14:04:31;33.50;99.90
18741;DHT22;9499;52.472;13.448;2023-06-22T14:06:59;33.60;99.90
18741;DHT22;9499;52.472;13.448;2023-06-22T14:09:25;33.70;99.90
18741;DHT22;9499;52.472;13.448;2023-06-22T14:11:53;33.90;99.90
18741;DHT22;9499;52.472;13.448;2023-06-22T14:14:20;33.90;99.90
18741;DHT22;9499;52.472;13.448;2023-06-22T14:16:47;33.80;99.90
18741;DHT22;9499;52.472;13.448;2023-06-22T14:19:16;33.70;99.90
18741;DHT22;9499;52.472;13.448;2023-06-22T14:21:42;33.70;99.90
18741;DHT22;9499;52.472;13.448;2023-06-22T14:24:10;33.80;99.90
18741;DHT22;9499;52.472;13.448;2023-06-22T14:26:37;33.70;99.90
18741;DHT22;9499;52.472;13.448;2023-06-22T14:29:03;34.00;99.90
18741;DHT22;9499;52.472;13.448;2023-06-22T14:31:30;34.20;99.90
18741;DHT22;9499;52.472;13.448;2023-06-22T14:33:56;34.20;99.90
18741;DHT22;9499;52.472;13.448;2023-06-22T14:36:23;34.20;99.90
18741;DHT22;9499;52.472;13.448;2023-06-22T14:38:49;34.20;99.90
18741;DHT22;9499;52.472;13.448;2023-06-22T14:41:17;34.30;99.90
18741;DHT22;9499;52.472;13.448;2023-06-22T14:43:44;34.40;99.90
18741;DHT22;9499;52.472;13.448;2023-06-22T14:46:12;34.30;99.90
18741;DHT22;9499;52.472;13.448;2023-06-22T14:48:38;34.10;99.90
18741;DHT22;9499;52.472;13.448;2023-06-22T14:51:05;34.10;99.90
18741;DHT22;9499;52.472;13.448;2023-06-22T14:53:32;34.00;99.90
18741;DHT22;9499;52.472;13.448;2023-06-22T14:55:58;33.80;99.90
18741;DHT22;9499;52.472;13.448;2023-06-22T14:58:28;33.70;99.90
18741;DHT22;9499;52.472;13.448;2023-06-22T15:00:55;33.60;99.90
18741;DHT22;9499;52.472;13.448;2023-06-22T15:03:21;33.70;99.90
18741;DHT22;9499;52.472;13.448;2023-06-22T15:05:52;33.80;99.90
18741;DHT22;9499;52.472;13.448;2023-06-22T15:08:19;33.90;99.90
18741;DHT22;9499;52.472;13.448;2023-06-22T15:10:46;33.90;99.90
18741;DHT22;9499;52.472;13.448;2023-06-22T15:13:12;34.00;99.90
18741;DHT22;9499;52.472;13.448;2023-06-22T15:15:40;33.90;99.90
18741;DHT22;9499;52.472;13.448;2023-06-22T15:18:07;34.10;99.90
18741;DHT22;9499;52.472;13.448;2023-06-22T15:20:33;34.40;99.90
18741;DHT22;9499;52.472;13.448;2023-06-22T15:23:00;34.40;99.90
18741;DHT22;9499;52.472;13.448;2023-06-22T15:25:27;34.30;99.90
18741;DHT22;9499;52.472;13.448;2023-06-22T15:27:56;34.30;99.90
18741;DHT22;9499;52.472;13.448;2023-06-22T15:30:22;34.20;99.90
18741;DHT22;9499;52.472;13.448;2023-06-22T15:32:50;34.20;99.90
18741;DHT22;9499;52.472;13.448;2023-06-22T15:35:17;34.20;99.90
18741;DHT22;9499;52.472;13.448;2023-06-22T15:37:44;34.00;99.90